| time (UTC) | temp F | wind direction | speed MPH | gust MPH | rain 1hr in | rain 24hr in | rain mn in | humidity % | barometer mb |
| 20260508141509 | 64 | 259 | 4.0 | 7.0 | 0.00 | 0.00 | 0.00 | 48 | 1016.3 |
| 20260508140003 | 62 | 203 | 2.0 | 7.0 | 0.00 | 0.00 | 0.00 | 50 | 1016.4 |
| 20260508134558 | 60 | 236 | 1.0 | 8.0 | 0.00 | 0.00 | 0.00 | 55 | 1016.5 |
| 20260508133054 | 58 | 198 | 1.0 | 5.0 | 0.00 | 0.00 | 0.00 | 60 | 1016.6 |
| 20260508131558 | 54 | 264 | 0.0 | 2.0 | 0.00 | 0.00 | 0.00 | 69 | 1016.7 |
| 20260508130050 | 52 | 355 | 0.0 | 1.0 | 0.00 | 0.00 | 0.00 | 72 | 1016.8 |
| 20260508124548 | 49 | 71 | 0.0 | 1.0 | 0.00 | 0.00 | 0.00 | 77 | 1016.9 |
| 20260508123049 | 47 | 40 | 0.0 | 2.0 | 0.00 | 0.00 | 0.00 | 81 | 1016.9 |
| 20260508121546 | 45 | 351 | 0.0 | 1.0 | 0.00 | 0.00 | 0.00 | 84 | 1016.8 |
| 20260508120054 | 43 | 355 | 0.0 | 1.0 | 0.00 | 0.00 | 0.00 | 87 | 1016.8 |
| 20260508114544 | 41 | 315 | 0.0 | 1.0 | 0.00 | 0.00 | 0.00 | 89 | 1016.6 |
| 20260508113053 | 40 | 285 | 0.0 | 1.0 | 0.00 | 0.00 | 0.00 | 90 | 1016.7 |
| 20260508111552 | 38 | 286 | 0.0 | 1.0 | 0.00 | 0.00 | 0.00 | 90 | 1016.7 |
| 20260508110049 | 37 | 288 | 0.0 | 0.0 | 0.00 | 0.00 | 0.00 | 90 | 1016.5 |
| 20260508104537 | 37 | 288 | 0.0 | 0.0 | 0.00 | 0.00 | 0.00 | 89 | 1016.3 |
| 20260508103044 | 37 | 288 | 0.0 | 0.0 | 0.00 | 0.00 | 0.00 | 89 | 1016.2 |
| 20260508101539 | 38 | 288 | 0.0 | 0.0 | 0.00 | 0.00 | 0.00 | 89 | 1016.1 |
| 20260508100031 | 38 | 288 | 0.0 | 0.0 | 0.00 | 0.00 | 0.00 | 89 | 1016.0 |
| 20260508094526 | 38 | 288 | 0.0 | 0.0 | 0.00 | 0.00 | 0.00 | 89 | 1015.9 |
| 20260508093025 | 38 | 288 | 0.0 | 1.0 | 0.00 | 0.00 | 0.00 | 89 | 1015.9 |
| 20260508091524 | 38 | 288 | 0.0 | 1.0 | 0.00 | 0.00 | 0.00 | 89 | 1015.9 |
| 20260508090022 | 39 | 288 | 0.0 | 1.0 | 0.00 | 0.00 | 0.00 | 89 | 1015.8 |
| 20260508084551 | 39 | 288 | 0.0 | 1.0 | 0.00 | 0.00 | 0.00 | 88 | 1015.8 |
| 20260508083110 | 39 | 288 | 0.0 | 0.0 | 0.00 | 0.00 | 0.00 | 88 | 1015.7 |
| 20260508081519 | 39 | 288 | 0.0 | 0.0 | 0.00 | 0.00 | 0.00 | 88 | 1015.6 |
| 20260508080018 | 40 | 288 | 0.0 | 1.0 | 0.00 | 0.00 | 0.00 | 88 | 1015.6 |
| 20260508074515 | 40 | 288 | 0.0 | 1.0 | 0.00 | 0.00 | 0.00 | 88 | 1015.6 |
| 20260508073016 | 40 | 288 | 0.0 | 1.0 | 0.00 | 0.00 | 0.00 | 88 | 1015.5 |
| 20260508071514 | 41 | 288 | 1.0 | 2.0 | 0.00 | 0.00 | 0.00 | 88 | 1015.6 |
| 20260508070010 | 41 | 288 | 0.0 | 1.0 | 0.00 | 0.00 | 0.00 | 87 | 1015.4 |
| 20260508064507 | 41 | 288 | 0.0 | 1.0 | 0.00 | 0.00 | 0.00 | 87 | 1015.5 |
| 20260508063006 | 42 | 288 | 0.0 | 0.0 | 0.00 | 0.00 | 0.00 | 87 | 1015.5 |
| 20260508061512 | 42 | 288 | 0.0 | 1.0 | 0.00 | 0.00 | 0.00 | 87 | 1015.7 |
| 20260508060004 | 42 | 278 | 0.0 | 0.0 | 0.00 | 0.00 | 0.00 | 86 | 1015.7 |
| 20260508054534 | 42 | 281 | 0.0 | 2.0 | 0.00 | 0.00 | 0.00 | 86 | 1015.8 |
| 20260508053033 | 43 | 294 | 0.0 | 0.0 | 0.00 | 0.00 | 0.00 | 84 | 1015.5 |
| 20260508051527 | 43 | 294 | 0.0 | 0.0 | 0.00 | 0.00 | 0.00 | 84 | 1015.5 |
| 20260508050027 | 44 | 294 | 0.0 | 0.0 | 0.00 | 0.00 | 0.00 | 83 | 1015.5 |
| 20260508044523 | 44 | 294 | 0.0 | 1.0 | 0.00 | 0.00 | 0.00 | 82 | 1015.6 |
| 20260508043021 | 45 | 294 | 0.0 | 1.0 | 0.00 | 0.00 | 0.00 | 81 | 1015.6 |
| 20260508041619 | 45 | 294 | 0.0 | 1.0 | 0.00 | 0.00 | 0.00 | 80 | 1015.5 |
| 20260508040046 | 46 | 261 | 0.0 | 1.0 | 0.00 | 0.00 | 0.00 | 79 | 1015.5 |
| 20260508034546 | 47 | 261 | 0.0 | 2.0 | 0.00 | 0.00 | 0.00 | 76 | 1015.5 |
| 20260508033039 | 47 | 261 | 0.0 | 1.0 | 0.00 | 0.00 | 0.00 | 75 | 1015.5 |
| 20260508031535 | 48 | 261 | 0.0 | 4.0 | 0.00 | 0.00 | 0.00 | 73 | 1015.5 |
| 20260508030133 | 48 | 278 | 1.0 | 3.0 | 0.00 | 0.00 | 0.00 | 72 | 1015.4 |
| 20260508024541 | 49 | 270 | 0.0 | 2.0 | 0.00 | 0.00 | 0.00 | 69 | 1015.4 |
| 20260508023028 | 51 | 248 | 0.0 | 3.0 | 0.00 | 0.00 | 0.00 | 67 | 1015.0 |
| 20260508021520 | 51 | 257 | 0.0 | 3.0 | 0.00 | 0.00 | 0.00 | 65 | 1014.8 |
| 20260508020015 | 53 | 271 | 0.0 | 3.0 | 0.00 | 0.00 | 0.00 | 61 | 1014.7 |
| 20260508014529 | 54 | 250 | 1.0 | 3.0 | 0.00 | 0.00 | 0.00 | 58 | 1014.4 |
| 20260508013044 | 56 | 268 | 0.0 | 2.0 | 0.00 | 0.00 | 0.00 | 54 | 1014.2 |
| 20260508011540 | 57 | 268 | 0.0 | 1.0 | 0.00 | 0.00 | 0.00 | 50 | 1013.9 |
| 20260508010031 | 58 | 268 | 1.0 | 2.0 | 0.00 | 0.00 | 0.00 | 46 | 1013.7 |
| 20260508004528 | 59 | 321 | 0.0 | 3.0 | 0.00 | 0.00 | 0.00 | 40 | 1013.6 |
| 20260508003047 | 60 | 292 | 2.0 | 5.0 | 0.00 | 0.00 | 0.00 | 38 | 1013.5 |
| 20260508001518 | 60 | 273 | 3.0 | 7.0 | 0.00 | 0.00 | 0.00 | 37 | 1013.3 |
| 20260508000012 | 61 | 300 | 3.0 | 8.0 | 0.00 | 0.00 | 0.00 | 35 | 1013.1 |
| 20260507234509 | 63 | 278 | 4.0 | 9.0 | 0.00 | 0.00 | 0.00 | 34 | 1013.0 |
| 20260507233005 | 63 | 263 | 3.0 | 9.0 | 0.00 | 0.00 | 0.00 | 33 | 1012.9 |
| 20260507231503 | 63 | 270 | 3.0 | 12.0 | 0.00 | 0.00 | 0.00 | 31 | 1012.7 |
| 20260507230101 | 64 | 279 | 7.0 | 11.0 | 0.00 | 0.00 | 0.00 | 32 | 1012.8 |
| 20260507224615 | 64 | 282 | 4.0 | 13.0 | 0.00 | 0.00 | 0.00 | 33 | 1012.7 |
| 20260507223059 | 65 | 272 | 4.0 | 13.0 | 0.00 | 0.00 | 0.00 | 34 | 1012.7 |
| 20260507221552 | 65 | 322 | 5.0 | 9.0 | 0.00 | 0.00 | 0.00 | 38 | 1012.4 |
| 20260507220047 | 66 | 345 | 4.0 | 15.0 | 0.00 | 0.00 | 0.00 | 35 | 1012.4 |
| 20260507214550 | 66 | 259 | 8.0 | 15.0 | 0.00 | 0.00 | 0.00 | 34 | 1012.3 |
| 20260507213044 | 66 | 317 | 6.0 | 12.0 | 0.00 | 0.00 | 0.00 | 36 | 1012.1 |
| 20260507211550 | 66 | 315 | 4.0 | 13.0 | 0.00 | 0.00 | 0.00 | 36 | 1012.0 |
| 20260507210039 | 67 | 327 | 5.0 | 17.0 | 0.00 | 0.00 | 0.00 | 36 | 1012.0 |
| 20260507204534 | 67 | 60 | 3.0 | 13.0 | 0.00 | 0.00 | 0.00 | 36 | 1011.8 |
| 20260507203033 | 68 | 282 | 8.0 | 17.0 | 0.00 | 0.00 | 0.00 | 35 | 1011.7 |
| 20260507201532 | 68 | 284 | 5.0 | 12.0 | 0.00 | 0.00 | 0.00 | 36 | 1011.7 |
| 20260507200104 | 67 | 298 | 6.0 | 11.0 | 0.00 | 0.00 | 0.00 | 39 | 1011.8 |
| 20260507194558 | 68 | 294 | 4.0 | 12.0 | 0.00 | 0.00 | 0.00 | 38 | 1011.9 |
| 20260507193024 | 68 | 305 | 5.0 | 15.0 | 0.00 | 0.00 | 0.00 | 36 | 1012.0 |
| 20260507191523 | 67 | 252 | 6.0 | 12.0 | 0.00 | 0.00 | 0.00 | 39 | 1012.1 |
| 20260507190052 | 68 | 5 | 9.0 | 14.0 | 0.00 | 0.00 | 0.00 | 41 | 1012.5 |
| 20260507184551 | 66 | 314 | 5.0 | 15.0 | 0.00 | 0.00 | 0.00 | 40 | 1012.5 |
| 20260507183048 | 67 | 300 | 4.0 | 12.0 | 0.00 | 0.00 | 0.00 | 40 | 1012.6 |
| 20260507181549 | 67 | 355 | 2.0 | 11.0 | 0.00 | 0.00 | 0.00 | 41 | 1012.8 |
| 20260507180048 | 68 | 248 | 9.0 | 16.0 | 0.00 | 0.00 | 0.00 | 38 | 1012.7 |
| 20260507174549 | 67 | 271 | 3.0 | 9.0 | 0.00 | 0.00 | 0.00 | 41 | 1012.9 |
| 20260507173043 | 65 | 279 | 5.0 | 12.0 | 0.00 | 0.00 | 0.00 | 44 | 1013.2 |
| 20260507171543 | 67 | 322 | 4.0 | 9.0 | 0.00 | 0.00 | 0.00 | 43 | 1013.0 |
| 20260507170043 | 67 | 282 | 6.0 | 13.0 | 0.00 | 0.00 | 0.00 | 43 | 1013.4 |
| 20260507164541 | 69 | 221 | 6.0 | 14.0 | 0.00 | 0.00 | 0.00 | 43 | 1013.4 |
| 20260507163036 | 68 | 308 | 8.0 | 14.0 | 0.00 | 0.00 | 0.00 | 44 | 1013.4 |
| 20260507161532 | 67 | 292 | 8.0 | 14.0 | 0.00 | 0.00 | 0.00 | 45 | 1013.7 |
| 20260507160034 | 65 | 271 | 7.0 | 11.0 | 0.00 | 0.00 | 0.00 | 49 | 1013.8 |
| 20260507154530 | 64 | 311 | 2.0 | 9.0 | 0.00 | 0.00 | 0.00 | 51 | 1013.9 |
| 20260507153031 | 62 | 41 | 0.0 | 6.0 | 0.00 | 0.00 | 0.00 | 53 | 1013.9 |
| 20260507151522 | 63 | 328 | 2.0 | 10.0 | 0.00 | 0.00 | 0.00 | 52 | 1013.8 |
| 20260507150020 | 62 | 320 | 1.0 | 5.0 | 0.00 | 0.00 | 0.00 | 52 | 1013.8 |
| 20260507144519 | 61 | 269 | 2.0 | 6.0 | 0.00 | 0.02 | 0.00 | 53 | 1014.0 |
| 20260507143016 | 62 | 267 | 3.0 | 7.0 | 0.00 | 0.02 | 0.00 | 56 | 1013.9 |